createdAt,value
2023-03-11T00:02:42.891Z,19.70
2023-03-11T00:12:47.900Z,19.20
2023-03-11T00:22:52.082Z,18.70
2023-03-11T00:32:57.975Z,20.80
2023-03-11T00:43:02.055Z,19.80
2023-03-11T00:53:07.129Z,21.70
2023-03-11T01:03:11.420Z,21.10
2023-03-11T01:13:17.563Z,20.80
2023-03-11T01:23:21.706Z,21.00
2023-03-11T01:33:25.386Z,20.60
2023-03-11T01:43:44.306Z,21.10
2023-03-11T01:54:22.859Z,25.30
2023-03-11T02:04:27.798Z,33.60
2023-03-11T02:14:32.212Z,22.50
2023-03-11T02:25:07.074Z,20.70
2023-03-11T02:35:13.804Z,20.60
2023-03-11T02:45:22.555Z,19.50
2023-03-11T02:55:26.837Z,18.80
2023-03-11T03:05:32.671Z,19.20
2023-03-11T03:15:37.761Z,19.20
2023-03-11T03:25:45.984Z,19.00
2023-03-11T03:35:50.870Z,18.30
2023-03-11T03:46:05.083Z,17.10
2023-03-11T03:56:18.587Z,16.80
2023-03-11T04:06:25.375Z,15.90
2023-03-11T04:16:35.494Z,15.60
2023-03-11T04:26:43.026Z,13.70
2023-03-11T04:36:55.509Z,12.70
2023-03-11T04:47:06.117Z,10.00
2023-03-11T04:57:10.445Z,9.70
2023-03-11T05:07:17.417Z,9.00
2023-03-11T05:17:26.727Z,9.60
2023-03-11T05:27:30.592Z,8.60
2023-03-11T05:37:40.426Z,7.20
2023-03-11T05:47:44.951Z,6.00
2023-03-11T05:57:52.453Z,7.20
2023-03-11T06:07:56.875Z,5.50
2023-03-11T06:18:00.849Z,3.50
2023-03-11T06:28:05.094Z,2.90
2023-03-11T06:38:11.122Z,2.00
2023-03-11T06:48:14.958Z,2.00
2023-03-11T06:58:18.659Z,2.20
2023-03-11T07:08:22.418Z,1.60
2023-03-11T07:18:29.048Z,1.30
2023-03-11T07:28:33.421Z,1.00
2023-03-11T07:38:40.985Z,1.30
2023-03-11T07:48:48.327Z,1.40
2023-03-11T07:58:52.491Z,1.50
2023-03-11T08:08:58.219Z,1.60
2023-03-11T08:19:01.984Z,2.10
2023-03-11T08:29:06.200Z,2.70
2023-03-11T08:39:10.112Z,3.10
2023-03-11T08:49:15.324Z,3.60
2023-03-11T08:59:18.969Z,3.40
2023-03-11T09:09:22.800Z,3.60
2023-03-11T09:19:26.513Z,3.30
2023-03-11T09:29:30.808Z,3.30
2023-03-11T09:39:34.744Z,3.50
2023-03-11T09:49:58.745Z,3.40
2023-03-11T10:00:06.733Z,3.60
2023-03-11T10:10:17.946Z,8.20
2023-03-11T10:20:31.356Z,4.30
2023-03-11T10:30:45.597Z,4.20
2023-03-11T10:40:55.232Z,4.40
2023-03-11T10:51:14.631Z,4.40
2023-03-11T11:01:21.999Z,4.90
2023-03-11T11:11:25.677Z,4.60
2023-03-11T11:21:39.753Z,4.20
2023-03-11T11:31:47.611Z,4.20
2023-03-11T11:41:53.564Z,4.10
2023-03-11T11:52:07.121Z,3.90
2023-03-11T12:02:45.888Z,3.80
2023-03-11T12:13:06.161Z,3.80
2023-03-11T12:23:43.421Z,3.30
2023-03-11T12:33:53.977Z,3.60
2023-03-11T12:44:03.933Z,3.70
2023-03-11T12:54:32.271Z,3.30
2023-03-11T13:04:44.839Z,3.90
2023-03-11T13:14:48.452Z,4.00
2023-03-11T13:24:52.295Z,3.50
2023-03-11T13:35:18.569Z,3.50
2023-03-11T13:45:30.627Z,3.90
2023-03-11T13:55:47.143Z,3.70
2023-03-11T14:06:02.979Z,3.50
2023-03-11T14:16:44.469Z,3.30
2023-03-11T14:26:59.347Z,3.60
2023-03-11T14:37:04.198Z,3.70
2023-03-11T14:47:18.380Z,3.70
2023-03-11T14:57:37.611Z,3.60
2023-03-11T15:07:41.371Z,3.60
2023-03-11T15:17:53.082Z,3.10
2023-03-11T15:27:57.000Z,3.00
2023-03-11T15:38:21.751Z,2.40
2023-03-11T15:48:28.449Z,2.20
2023-03-11T15:58:32.099Z,1.70
2023-03-11T16:08:35.885Z,1.80
2023-03-11T16:18:39.524Z,1.90
2023-03-11T16:28:44.465Z,2.10
2023-03-11T16:38:50.934Z,2.00
2023-03-11T16:48:55.854Z,2.60
2023-03-11T16:58:59.800Z,2.60
2023-03-11T17:09:03.879Z,2.20
2023-03-11T17:19:09.158Z,2.30
2023-03-11T17:29:15.463Z,2.00
2023-03-11T17:39:19.203Z,2.10
2023-03-11T17:49:24.726Z,1.90
2023-03-11T17:59:29.090Z,1.90
2023-03-11T18:09:32.763Z,2.00
2023-03-11T18:19:39.400Z,2.50
2023-03-11T18:29:44.804Z,2.10
2023-03-11T18:39:54.593Z,2.60
2023-03-11T18:49:58.275Z,2.70
2023-03-11T19:00:05.293Z,2.20
2023-03-11T19:10:15.552Z,1.90
2023-03-11T19:31:02.482Z,2.60
2023-03-11T19:41:19.673Z,3.30
2023-03-11T19:51:24.488Z,5.20
2023-03-11T20:01:31.631Z,4.00
2023-03-11T20:11:40.531Z,4.60
2023-03-11T20:21:46.027Z,5.10
2023-03-11T20:31:52.860Z,5.30
2023-03-11T20:41:57.243Z,5.60
2023-03-11T20:52:03.150Z,5.90
2023-03-11T21:02:12.140Z,6.60
2023-03-11T21:12:18.863Z,7.10
2023-03-11T21:22:23.892Z,6.80
2023-03-11T21:32:30.460Z,6.60
2023-03-11T21:42:34.899Z,6.40
2023-03-11T21:52:40.974Z,6.60
2023-03-11T22:02:44.800Z,6.40
2023-03-11T22:12:50.465Z,6.30
2023-03-11T22:22:55.044Z,7.00
2023-03-11T22:32:58.761Z,6.80
2023-03-11T22:43:02.544Z,7.20
2023-03-11T22:53:06.152Z,7.50
2023-03-11T23:03:11.715Z,7.10
2023-03-11T23:13:17.307Z,7.30
2023-03-11T23:23:23.151Z,6.80
2023-03-11T23:33:26.874Z,7.00
2023-03-11T23:43:30.778Z,7.70
2023-03-11T23:53:34.858Z,7.30
